Time;durP1;ratioP1;P1;durP2;ratioP2;P2;SDS_P1;SDS_P2;PMS_P1;PMS_P2;Temp;Humidity;BMP_temperature;BMP_pressure;BME280_temperature;BME280_humidity;BME280_pressure;Samples;Min_cycle;Max_cycle;Signal;HPM_P1;HPM_P2
2022/03/19 00:00:58;;;;;;;10.77;1.52;;;6.50;99.90;;;;;;5015774;28;20091;-83
2022/03/19 00:03:25;;;;;;;9.10;1.63;;;6.50;99.90;;;;;;5032520;28;20047;-84
2022/03/19 00:05:50;;;;;;;13.10;2.45;;;6.40;99.90;;;;;;5036931;28;20980;-84
2022/03/19 00:08:16;;;;;;;7.63;1.75;;;6.40;99.90;;;;;;5027848;28;20140;-83
2022/03/19 00:10:43;;;;;;;9.77;1.85;;;6.40;99.90;;;;;;5052780;28;20040;-84
2022/03/19 00:13:10;;;;;;;11.65;2.28;;;6.30;99.90;;;;;;5039281;28;20053;-84
2022/03/19 00:15:37;;;;;;;9.30;2.00;;;6.30;99.90;;;;;;5058507;28;20045;-83
2022/03/19 00:18:03;;;;;;;8.82;1.88;;;6.20;99.90;;;;;;5041562;28;20043;-83
2022/03/19 00:20:30;;;;;;;8.45;1.48;;;6.20;99.90;;;;;;5057551;28;21250;-83
2022/03/19 00:22:55;;;;;;;8.07;2.00;;;6.20;99.90;;;;;;5035133;28;20044;-84
2022/03/19 00:25:21;;;;;;;10.10;2.22;;;6.20;99.90;;;;;;5019031;28;20037;-84
2022/03/19 00:27:47;;;;;;;10.73;1.90;;;6.20;99.90;;;;;;5052108;28;20068;-83
2022/03/19 00:30:13;;;;;;;7.90;1.75;;;6.10;99.90;;;;;;5039228;28;20385;-83
2022/03/19 00:32:39;;;;;;;10.38;2.00;;;6.10;99.90;;;;;;5022058;28;20044;-83
2022/03/19 00:35:07;;;;;;;8.93;2.25;;;6.00;99.90;;;;;;5035182;28;20036;-83
2022/03/19 00:37:46;;;;;;;13.43;2.35;;;6.00;99.90;;;;;;5057269;28;20068;-85
2022/03/19 00:40:12;;;;;;;8.63;1.90;;;5.90;99.90;;;;;;5039145;28;20389;-84
2022/03/19 00:42:38;;;;;;;5.53;1.77;;;5.90;99.90;;;;;;5064158;28;20515;-84
2022/03/19 00:45:04;;;;;;;11.68;2.35;;;5.90;99.90;;;;;;5030263;28;20072;-84
2022/03/19 00:47:30;;;;;;;6.00;1.23;;;5.80;99.90;;;;;;5022282;28;20040;-83
2022/03/19 00:49:55;;;;;;;9.10;2.25;;;5.80;99.90;;;;;;5018690;28;20052;-85
2022/03/19 00:52:21;;;;;;;10.80;2.70;;;5.80;99.90;;;;;;5037041;28;20122;-84
2022/03/19 00:54:47;;;;;;;15.75;2.25;;;5.70;99.90;;;;;;5035225;28;20125;-84
2022/03/19 00:57:12;;;;;;;10.73;1.88;;;5.70;99.90;;;;;;5032258;28;20121;-84
2022/03/19 00:59:38;;;;;;;6.50;1.70;;;5.70;99.90;;;;;;5037457;28;20044;-84
2022/03/19 01:02:04;;;;;;;7.78;1.90;;;5.70;99.90;;;;;;5038382;28;20040;-84
2022/03/19 01:04:29;;;;;;;7.47;1.92;;;5.70;99.90;;;;;;5038568;28;20060;-84
2022/03/19 01:06:55;;;;;;;6.30;1.58;;;5.60;99.90;;;;;;5031564;28;20053;-84
2022/03/19 01:09:20;;;;;;;7.82;1.45;;;5.60;99.90;;;;;;5051460;28;20086;-84
2022/03/19 01:11:46;;;;;;;8.57;2.03;;;5.50;99.90;;;;;;5036106;28;20045;-84
2022/03/19 01:14:12;;;;;;;8.02;1.67;;;5.60;99.90;;;;;;5051519;28;20624;-84
2022/03/19 01:16:38;;;;;;;8.82;2.13;;;5.50;99.90;;;;;;5018501;28;20053;-84
2022/03/19 01:19:04;;;;;;;7.88;1.67;;;5.50;99.90;;;;;;5038973;28;20068;-84
2022/03/19 01:21:29;;;;;;;9.93;2.00;;;5.50;99.90;;;;;;5019779;28;20033;-84
2022/03/19 01:23:55;;;;;;;9.77;2.10;;;5.40;99.90;;;;;;5017976;28;20063;-84
2022/03/19 01:26:21;;;;;;;7.30;1.50;;;5.40;99.90;;;;;;5036707;28;20049;-84
2022/03/19 01:28:46;;;;;;;10.43;1.50;;;5.40;99.90;;;;;;5050918;28;20519;-84
2022/03/19 01:31:12;;;;;;;5.30;1.30;;;5.40;99.90;;;;;;5039692;28;20041;-84
2022/03/19 01:33:38;;;;;;;7.57;1.77;;;5.40;99.90;;;;;;5052057;28;20067;-84
2022/03/19 01:36:04;;;;;;;8.02;1.65;;;5.30;99.90;;;;;;5033679;28;20049;-84
2022/03/19 01:38:30;;;;;;;7.80;1.63;;;5.40;99.90;;;;;;5045205;28;20037;-84
2022/03/19 01:40:55;;;;;;;9.75;1.65;;;5.30;99.90;;;;;;5014173;28;20101;-84
2022/03/19 01:43:21;;;;;;;7.22;1.48;;;5.30;99.90;;;;;;5017931;28;20127;-84
2022/03/19 01:45:48;;;;;;;6.78;1.35;;;5.20;99.90;;;;;;5037749;28;20056;-85
2022/03/19 01:48:13;;;;;;;10.45;1.52;;;5.20;99.90;;;;;;5058950;28;20051;-84
2022/03/19 01:50:39;;;;;;;7.22;1.40;;;5.20;99.90;;;;;;5062804;28;20090;-84
2022/03/19 01:53:05;;;;;;;6.90;1.30;;;5.10;99.90;;;;;;5054000;28;20470;-84
2022/03/19 01:55:32;;;;;;;7.97;1.42;;;5.10;99.90;;;;;;5050941;28;20041;-84
2022/03/19 01:57:58;;;;;;;6.88;1.40;;;5.10;99.90;;;;;;5050896;28;20076;-84
2022/03/19 02:00:24;;;;;;;8.77;1.70;;;5.10;99.90;;;;;;5051730;28;20029;-83
2022/03/19 02:02:52;;;;;;;6.28;1.52;;;5.10;99.90;;;;;;5033891;28;20112;-84
2022/03/19 02:05:21;;;;;;;9.27;2.03;;;5.10;99.90;;;;;;5007107;28;20072;-84
2022/03/19 02:07:48;;;;;;;8.73;1.40;;;5.10;99.90;;;;;;5032980;28;20064;-84
2022/03/19 02:10:15;;;;;;;10.20;2.28;;;5.10;99.90;;;;;;5052012;28;20080;-84
2022/03/19 02:12:41;;;;;;;11.60;1.95;;;5.10;99.90;;;;;;5056934;28;20086;-85
2022/03/19 02:15:09;;;;;;;9.02;1.88;;;5.10;99.90;;;;;;5037070;28;20327;-84
2022/03/19 02:17:36;;;;;;;13.40;2.03;;;5.00;99.90;;;;;;5030857;28;20056;-84
2022/03/19 02:20:03;;;;;;;8.75;2.20;;;5.10;99.90;;;;;;5043255;28;20059;-84
2022/03/19 02:22:29;;;;;;;9.80;1.90;;;5.10;99.90;;;;;;5034223;28;20551;-84
2022/03/19 02:27:40;;;;;;;6.20;1.67;;;5.10;99.90;;;;;;5048614;28;20060;-84
2022/03/19 02:30:10;;;;;;;10.70;2.40;;;5.10;99.90;;;;;;5016747;28;20055;-84
2022/03/19 02:32:36;;;;;;;12.05;2.47;;;5.10;99.90;;;;;;5047314;28;20043;-84
2022/03/19 02:35:02;;;;;;;9.32;2.00;;;5.10;99.90;;;;;;5033929;28;20114;-84
2022/03/19 02:37:40;;;;;;;9.63;1.58;;;5.10;99.90;;;;;;5013198;28;20037;-84
2022/03/19 02:40:09;;;;;;;10.63;2.10;;;5.10;99.90;;;;;;5040752;28;20119;-84
2022/03/19 02:42:35;;;;;;;6.43;1.85;;;5.10;99.90;;;;;;5032060;28;20040;-83
2022/03/19 02:45:01;;;;;;;8.10;2.17;;;5.00;99.90;;;;;;5009481;28;20091;-84
2022/03/19 02:47:26;;;;;;;11.23;2.47;;;5.00;99.90;;;;;;5028003;28;20455;-85
2022/03/19 02:49:52;;;;;;;7.25;1.65;;;5.00;99.90;;;;;;5034735;28;20056;-84
2022/03/19 02:52:17;;;;;;;14.75;2.45;;;5.00;99.90;;;;;;5039811;28;20094;-84
2022/03/19 02:54:43;;;;;;;9.68;2.47;;;5.00;99.90;;;;;;5016673;28;20056;-84
2022/03/19 02:57:09;;;;;;;8.45;2.10;;;5.00;99.90;;;;;;5013259;28;20481;-85
2022/03/19 02:59:34;;;;;;;6.68;1.70;;;4.90;99.90;;;;;;5053752;28;20046;-84
2022/03/19 03:02:02;;;;;;;7.35;1.88;;;4.90;99.90;;;;;;5036092;28;20025;-84
2022/03/19 03:04:29;;;;;;;12.77;1.80;;;4.90;99.90;;;;;;5033673;28;20094;-84
2022/03/19 03:06:57;;;;;;;8.82;1.92;;;4.90;99.90;;;;;;5040643;28;20105;-84
2022/03/19 03:09:24;;;;;;;9.77;2.47;;;4.90;99.90;;;;;;5018716;28;20024;-83
2022/03/19 03:11:50;;;;;;;11.40;2.28;;;4.80;99.90;;;;;;5037723;28;20503;-84
2022/03/19 03:14:18;;;;;;;9.32;2.30;;;4.80;99.90;;;;;;5041389;28;20041;-84
2022/03/19 03:16:44;;;;;;;10.38;2.10;;;4.80;99.90;;;;;;5054827;28;20036;-84
2022/03/19 03:19:11;;;;;;;10.75;2.35;;;4.80;99.90;;;;;;5022142;28;20036;-84
2022/03/19 03:21:41;;;;;;;10.77;1.98;;;4.80;99.90;;;;;;5016718;28;20516;-84
2022/03/19 03:24:08;;;;;;;10.75;2.00;;;4.80;99.90;;;;;;5040364;28;20039;-84
2022/03/19 03:26:34;;;;;;;9.27;2.35;;;4.80;99.90;;;;;;5029575;28;20064;-83
2022/03/19 03:29:00;;;;;;;7.28;1.75;;;4.80;99.90;;;;;;5030205;28;20029;-84
2022/03/19 03:31:27;;;;;;;12.18;2.08;;;4.80;99.90;;;;;;5016197;28;20087;-83
2022/03/19 03:33:53;;;;;;;11.20;2.08;;;4.70;99.90;;;;;;5013224;28;20103;-84
2022/03/19 03:36:20;;;;;;;7.30;1.88;;;4.80;99.90;;;;;;5049531;28;20037;-84
2022/03/19 03:38:45;;;;;;;8.48;2.40;;;4.70;99.90;;;;;;5031267;28;20037;-84
2022/03/19 03:41:11;;;;;;;6.72;2.20;;;4.70;99.90;;;;;;5031746;28;20039;-84
2022/03/19 03:43:37;;;;;;;8.68;2.40;;;4.70;99.90;;;;;;5019103;28;20064;-84
2022/03/19 03:46:04;;;;;;;7.53;1.98;;;4.70;99.90;;;;;;5049369;28;20037;-84
2022/03/19 03:48:30;;;;;;;11.07;2.38;;;4.70;99.90;;;;;;5042564;28;20354;-84
2022/03/19 03:50:58;;;;;;;7.97;2.67;;;4.70;99.90;;;;;;5033950;28;20554;-84
2022/03/19 03:53:26;;;;;;;11.50;2.50;;;4.70;99.90;;;;;;5034419;28;20059;-84
2022/03/19 03:55:53;;;;;;;10.23;2.10;;;4.70;99.90;;;;;;5031760;28;20428;-84
2022/03/19 03:58:19;;;;;;;12.55;2.20;;;4.70;99.90;;;;;;5019426;28;20431;-84
2022/03/19 04:00:44;;;;;;;10.27;2.28;;;4.70;99.90;;;;;;5061775;28;20622;-84
2022/03/19 04:03:11;;;;;;;11.20;2.25;;;4.60;99.90;;;;;;5057028;28;20087;-84
2022/03/19 04:05:37;;;;;;;9.40;3.88;;;4.60;99.90;;;;;;5017030;28;20532;-84
2022/03/19 04:08:03;;;;;;;9.73;2.15;;;4.60;99.90;;;;;;5043384;28;20040;-84
2022/03/19 04:10:30;;;;;;;7.72;2.63;;;4.60;99.90;;;;;;5041238;28;20192;-84
2022/03/19 04:12:55;;;;;;;7.60;2.15;;;4.60;99.90;;;;;;5071149;28;20091;-84
2022/03/19 04:15:21;;;;;;;9.85;2.75;;;4.60;99.90;;;;;;5039173;28;20446;-84
2022/03/19 04:17:47;;;;;;;10.13;2.50;;;4.60;99.90;;;;;;5066249;28;20043;-84
2022/03/19 04:20:13;;;;;;;7.82;2.53;;;4.50;99.90;;;;;;5038309;28;20067;-84
2022/03/19 04:22:44;;;;;;;9.93;2.50;;;4.50;99.90;;;;;;5033462;28;20040;-84
2022/03/19 04:25:18;;;;;;;8.35;2.50;;;4.50;99.90;;;;;;5049962;28;20133;-85
2022/03/19 04:27:50;;;;;;;10.55;2.50;;;4.50;99.90;;;;;;5034083;28;20168;-83
2022/03/19 04:30:17;;;;;;;10.63;2.53;;;4.40;99.90;;;;;;5054585;28;20032;-84
2022/03/19 04:32:57;;;;;;;8.57;2.42;;;4.40;99.90;;;;;;5046088;28;20036;-83
2022/03/19 04:38:11;;;;;;;10.23;2.53;;;4.40;99.90;;;;;;5047033;28;20045;-84
2022/03/19 04:40:37;;;;;;;10.27;2.35;;;4.40;99.90;;;;;;5049389;28;20146;-84
2022/03/19 04:43:03;;;;;;;10.68;2.42;;;4.30;99.90;;;;;;5032249;28;20032;-84
2022/03/19 04:45:29;;;;;;;8.55;2.30;;;4.30;99.90;;;;;;5039173;28;20037;-84
2022/03/19 04:47:55;;;;;;;8.93;3.15;;;4.30;99.90;;;;;;5054382;28;20472;-84
2022/03/19 04:50:21;;;;;;;8.70;2.70;;;4.30;99.90;;;;;;5044821;28;20129;-84
2022/03/19 04:52:48;;;;;;;7.82;2.53;;;4.20;99.90;;;;;;5035429;28;20454;-84
2022/03/19 04:55:14;;;;;;;9.82;2.78;;;4.20;99.90;;;;;;5054406;28;20466;-84
2022/03/19 04:57:42;;;;;;;7.57;2.38;;;4.20;99.90;;;;;;5029858;28;20029;-84
2022/03/19 05:00:12;;;;;;;6.93;2.40;;;4.20;99.90;;;;;;5045357;28;20540;-84
2022/03/19 05:02:38;;;;;;;8.75;2.72;;;4.20;99.90;;;;;;5034922;28;20089;-84
2022/03/19 05:05:04;;;;;;;5.82;2.42;;;4.20;99.90;;;;;;5054131;28;20140;-84
2022/03/19 05:07:35;;;;;;;9.13;2.50;;;4.20;99.90;;;;;;5010622;28;20403;-84
2022/03/19 05:12:50;;;;;;;9.10;2.35;;;4.20;99.90;;;;;;5051203;28;20040;-84
2022/03/19 05:15:17;;;;;;;11.50;2.38;;;4.20;99.90;;;;;;5051804;28;20489;-84
2022/03/19 05:17:44;;;;;;;10.77;3.38;;;4.30;99.90;;;;;;5054425;28;20481;-84
2022/03/19 05:20:11;;;;;;;10.02;2.83;;;4.30;99.90;;;;;;5036482;28;20045;-83
2022/03/19 05:22:37;;;;;;;8.20;2.40;;;4.30;99.90;;;;;;5036217;28;20439;-84
2022/03/19 05:25:04;;;;;;;6.97;2.53;;;4.30;99.90;;;;;;5018661;28;21510;-84
2022/03/19 05:27:30;;;;;;;10.68;2.38;;;4.30;99.90;;;;;;5051907;28;20033;-84
2022/03/19 05:29:56;;;;;;;9.43;2.30;;;4.30;99.90;;;;;;5038882;28;20032;-84
2022/03/19 05:32:22;;;;;;;12.68;3.00;;;4.30;99.90;;;;;;5048197;28;20090;-84
2022/03/19 05:34:48;;;;;;;9.02;2.28;;;4.30;99.90;;;;;;5055415;28;20043;-84
2022/03/19 05:37:15;;;;;;;8.55;2.60;;;4.20;99.90;;;;;;5037963;28;20051;-84
2022/03/19 05:39:41;;;;;;;7.47;2.80;;;4.20;99.90;;;;;;5018156;28;20029;-84
2022/03/19 05:42:07;;;;;;;8.65;2.70;;;4.20;99.90;;;;;;5041761;28;20449;-84
2022/03/19 05:44:34;;;;;;;8.68;2.70;;;4.20;99.90;;;;;;5029792;28;20072;-83
2022/03/19 05:47:00;;;;;;;10.40;2.50;;;4.20;99.90;;;;;;5029372;28;20508;-84
2022/03/19 05:49:26;;;;;;;9.70;2.30;;;4.20;99.90;;;;;;5037960;28;20037;-84
2022/03/19 05:51:52;;;;;;;7.68;2.17;;;4.20;99.90;;;;;;5035895;28;20040;-84
2022/03/19 05:54:18;;;;;;;8.35;2.17;;;4.20;99.90;;;;;;5043640;28;20186;-83
2022/03/19 05:56:44;;;;;;;9.27;2.47;;;4.30;99.90;;;;;;5051469;28;20037;-84
2022/03/19 05:59:10;;;;;;;6.53;2.13;;;4.30;99.90;;;;;;5019433;28;20055;-84
2022/03/19 06:01:36;;;;;;;6.60;2.03;;;4.30;99.90;;;;;;5040244;28;20031;-83
2022/03/19 06:04:02;;;;;;;8.25;1.98;;;4.30;99.90;;;;;;5037598;28;20104;-83
2022/03/19 06:06:29;;;;;;;7.78;3.08;;;4.30;99.90;;;;;;5032304;28;20171;-83
2022/03/19 06:08:55;;;;;;;8.18;2.33;;;4.30;99.90;;;;;;5053248;28;21352;-84
2022/03/19 06:11:21;;;;;;;11.63;2.70;;;4.30;99.90;;;;;;5037986;28;20044;-84
2022/03/19 06:13:46;;;;;;;7.70;2.03;;;4.30;99.90;;;;;;5055959;28;20043;-84
2022/03/19 06:16:12;;;;;;;13.35;2.65;;;4.30;99.90;;;;;;5025806;28;20218;-84
2022/03/19 06:18:38;;;;;;;6.80;1.77;;;4.30;99.90;;;;;;5012690;28;20040;-84
2022/03/19 06:21:04;;;;;;;10.45;2.28;;;4.30;99.90;;;;;;5058868;28;20094;-84
2022/03/19 06:23:30;;;;;;;10.40;2.20;;;4.30;99.90;;;;;;5016293;28;20083;-84
2022/03/19 06:25:56;;;;;;;9.02;2.45;;;4.30;99.90;;;;;;5047555;28;20485;-84
2022/03/19 06:28:22;;;;;;;8.13;1.90;;;4.30;99.90;;;;;;5029947;28;20539;-84
2022/03/19 06:30:48;;;;;;;11.23;3.85;;;4.30;99.90;;;;;;5035990;28;20040;-84
2022/03/19 06:33:14;;;;;;;10.40;2.53;;;4.30;99.90;;;;;;5017413;28;20033;-82
2022/03/19 06:38:27;;;;;;;7.88;2.20;;;4.40;99.90;;;;;;5052645;28;20041;-84
2022/03/19 06:40:53;;;;;;;8.65;2.13;;;4.40;99.90;;;;;;5057468;28;20067;-83
2022/03/19 06:43:19;;;;;;;8.30;2.08;;;4.50;99.90;;;;;;5023047;28;20167;-83
2022/03/19 06:45:44;;;;;;;6.88;1.88;;;4.50;99.90;;;;;;5005794;28;20049;-84
2022/03/19 06:48:10;;;;;;;11.52;2.17;;;4.50;99.90;;;;;;5058607;28;20064;-83
2022/03/19 06:50:36;;;;;;;9.35;2.13;;;4.60;99.90;;;;;;5036409;28;20041;-83
2022/03/19 06:53:04;;;;;;;9.70;2.10;;;4.60;99.90;;;;;;5042869;28;20072;-83
2022/03/19 06:55:31;;;;;;;13.82;2.33;;;4.70;99.90;;;;;;5037485;28;20101;-83
2022/03/19 06:57:59;;;;;;;6.60;1.65;;;4.70;99.90;;;;;;5029784;28;20124;-83
2022/03/19 07:00:26;;;;;;;4.90;1.83;;;4.70;99.90;;;;;;5036093;28;20132;-83
2022/03/19 07:02:53;;;;;;;5.75;1.80;;;4.80;99.90;;;;;;5016214;28;20036;-83
2022/03/19 07:05:23;;;;;;;10.90;2.10;;;4.80;99.90;;;;;;5025740;28;20537;-83
2022/03/19 07:07:50;;;;;;;9.35;2.35;;;4.90;99.90;;;;;;5033119;28;20571;-83
2022/03/19 07:10:18;;;;;;;6.90;2.03;;;4.90;99.90;;;;;;5028220;28;20041;-83
2022/03/19 07:12:45;;;;;;;8.50;2.17;;;5.00;99.90;;;;;;5029866;28;20067;-83
2022/03/19 07:15:20;;;;;;;11.27;1.95;;;5.00;99.90;;;;;;5032587;28;20044;-84
2022/03/19 07:17:46;;;;;;;8.57;1.98;;;5.10;99.90;;;;;;5046851;28;20038;-83
2022/03/19 07:20:14;;;;;;;9.70;2.47;;;5.20;99.90;;;;;;5044794;28;20036;-83
2022/03/19 07:22:48;;;;;;;9.45;2.20;;;5.20;99.90;;;;;;5018105;28;20056;-83
2022/03/19 07:25:14;;;;;;;7.65;1.67;;;5.30;99.90;;;;;;5026325;28;20494;-83
2022/03/19 07:27:40;;;;;;;14.55;1.90;;;5.30;99.90;;;;;;5049303;28;20381;-83
2022/03/19 07:30:06;;;;;;;13.57;2.10;;;5.40;99.90;;;;;;5030129;28;20104;-83
2022/03/19 07:32:32;;;;;;;10.20;2.55;;;5.50;99.90;;;;;;5045674;28;21131;-83
2022/03/19 07:34:59;;;;;;;10.38;2.20;;;5.50;99.90;;;;;;5046946;28;20079;-83
2022/03/19 07:37:25;;;;;;;9.18;2.22;;;5.60;99.90;;;;;;5029209;28;20087;-83
2022/03/19 07:39:50;;;;;;;8.65;2.03;;;5.70;99.90;;;;;;5029005;28;20037;-83
2022/03/19 07:42:16;;;;;;;11.02;2.15;;;5.80;99.90;;;;;;5047972;28;20052;-83
2022/03/19 07:44:41;;;;;;;8.35;1.75;;;5.80;99.90;;;;;;5031941;28;20041;-83
2022/03/19 07:47:07;;;;;;;11.45;2.42;;;5.90;99.90;;;;;;5011680;28;20037;-83
2022/03/19 07:49:33;;;;;;;11.55;2.38;;;6.00;99.90;;;;;;5033225;28;20029;-83
2022/03/19 07:51:58;;;;;;;9.07;2.50;;;6.10;99.90;;;;;;5028010;28;20099;-83
2022/03/19 07:54:27;;;;;;;9.60;2.55;;;6.10;99.90;;;;;;5045692;28;20056;-83
2022/03/19 07:56:53;;;;;;;8.40;2.53;;;6.20;99.90;;;;;;5016993;28;20040;-83
2022/03/19 07:59:20;;;;;;;7.05;1.48;;;6.30;99.90;;;;;;5045747;28;20417;-84
2022/03/19 08:01:48;;;;;;;8.05;1.92;;;6.40;99.90;;;;;;5033700;28;20048;-83
2022/03/19 08:04:15;;;;;;;6.68;2.53;;;6.40;99.90;;;;;;5027115;28;20041;-84
2022/03/19 08:06:41;;;;;;;9.77;2.20;;;6.50;99.90;;;;;;5050361;28;20057;-83
2022/03/19 08:09:08;;;;;;;8.98;2.08;;;6.50;99.90;;;;;;5038754;28;20032;-83
2022/03/19 08:11:34;;;;;;;7.15;2.42;;;6.60;99.90;;;;;;5033162;28;20362;-83
2022/03/19 08:14:00;;;;;;;10.82;2.40;;;6.80;99.90;;;;;;5031085;28;20516;-83
2022/03/19 08:16:26;;;;;;;10.00;2.10;;;6.90;99.90;;;;;;5050018;28;20469;-84
2022/03/19 08:18:52;;;;;;;13.10;2.50;;;6.90;99.90;;;;;;5051152;28;20040;-83
2022/03/19 08:21:17;;;;;;;8.88;1.83;;;7.00;99.90;;;;;;5032326;28;20048;-83
2022/03/19 08:23:43;;;;;;;15.40;2.38;;;7.10;99.90;;;;;;5032921;28;20059;-83
2022/03/19 08:26:10;;;;;;;8.73;1.85;;;7.20;99.90;;;;;;5047109;28;20041;-84
2022/03/19 08:28:35;;;;;;;9.48;1.75;;;7.30;99.90;;;;;;5028495;28;20080;-84
2022/03/19 08:31:01;;;;;;;13.77;2.28;;;7.30;99.90;;;;;;5034023;28;20130;-84
2022/03/19 08:33:27;;;;;;;7.28;1.92;;;7.40;99.90;;;;;;5034585;28;20040;-84
2022/03/19 08:35:52;;;;;;;8.68;1.50;;;7.50;99.90;;;;;;5020469;28;20047;-83
2022/03/19 08:41:03;;;;;;;6.63;1.85;;;7.70;99.90;;;;;;5035767;28;20041;-84
2022/03/19 08:43:29;;;;;;;6.93;1.85;;;7.70;99.90;;;;;;5021221;28;20534;-84
2022/03/19 08:45:54;;;;;;;12.52;1.70;;;7.80;99.90;;;;;;5012800;28;20045;-83
2022/03/19 08:48:20;;;;;;;7.45;2.30;;;8.00;99.50;;;;;;4997357;28;20042;-84
2022/03/19 08:50:46;;;;;;;8.07;1.70;;;8.10;98.60;;;;;;5000669;28;20120;-83
2022/03/19 08:53:13;;;;;;;6.93;1.67;;;8.20;97.50;;;;;;5006097;28;20117;-84
2022/03/19 08:55:39;;;;;;;9.52;2.13;;;8.30;97.70;;;;;;5018670;28;20065;-84
2022/03/19 08:58:05;;;;;;;10.25;2.05;;;8.30;97.30;;;;;;5009351;28;20030;-82
2022/03/19 09:00:31;;;;;;;9.02;2.17;;;8.40;97.00;;;;;;5013299;28;20401;-82
2022/03/19 09:02:57;;;;;;;11.18;3.13;;;8.50;96.40;;;;;;5009971;28;20141;-82
2022/03/19 09:05:23;;;;;;;7.85;2.17;;;8.50;96.60;;;;;;4997056;28;20112;-81
2022/03/19 09:07:49;;;;;;;15.90;3.50;;;8.60;96.10;;;;;;4978128;28;20517;-81
2022/03/19 09:10:15;;;;;;;12.90;2.08;;;8.60;94.20;;;;;;4993445;28;20455;-80
2022/03/19 09:12:41;;;;;;;9.45;2.20;;;8.60;95.20;;;;;;4993944;28;20052;-82
2022/03/19 09:15:10;;;;;;;10.90;2.33;;;8.70;94.60;;;;;;4995289;28;20049;-82
2022/03/19 09:17:36;;;;;;;7.43;1.50;;;8.70;94.30;;;;;;5012096;28;20126;-81
2022/03/19 09:20:04;;;;;;;9.95;1.95;;;8.80;94.50;;;;;;4999030;28;20406;-82
2022/03/19 09:22:30;;;;;;;8.20;1.65;;;8.90;95.20;;;;;;5006766;28;20474;-81
2022/03/19 09:24:57;;;;;;;6.57;1.75;;;9.00;94.30;;;;;;5002933;28;20191;-82
2022/03/19 09:27:22;;;;;;;11.48;1.90;;;9.10;94.10;;;;;;5009477;28;20046;-82
2022/03/19 09:29:48;;;;;;;9.52;2.13;;;9.20;93.20;;;;;;5020055;28;20046;-82
2022/03/19 09:32:17;;;;;;;6.70;1.85;;;9.30;92.10;;;;;;4962077;28;20057;-83
2022/03/19 09:34:47;;;;;;;6.18;1.88;;;9.30;91.40;;;;;;4995083;28;20414;-83
2022/03/19 09:37:16;;;;;;;9.73;1.67;;;9.40;90.50;;;;;;4994141;28;20141;-83
2022/03/19 09:39:41;;;;;;;8.73;1.55;;;9.50;89.40;;;;;;4991260;28;20068;-83
2022/03/19 09:42:11;;;;;;;8.07;2.38;;;9.50;87.40;;;;;;5012942;28;20136;-83
2022/03/19 09:44:37;;;;;;;7.90;1.90;;;9.70;88.20;;;;;;4976583;28;20053;-83
2022/03/19 09:47:04;;;;;;;10.45;1.80;;;9.70;86.70;;;;;;4990616;28;20046;-83
2022/03/19 09:49:31;;;;;;;6.47;1.63;;;9.80;85.00;;;;;;4994821;28;20034;-83
2022/03/19 09:52:01;;;;;;;5.20;1.38;;;9.90;83.80;;;;;;5012098;28;20057;-83
2022/03/19 09:54:26;;;;;;;9.32;1.58;;;10.10;80.20;;;;;;4996485;28;20049;-83
2022/03/19 09:56:52;;;;;;;7.35;1.25;;;10.10;76.10;;;;;;4998156;28;20060;-82
2022/03/19 09:59:18;;;;;;;6.10;1.60;;;10.20;72.90;;;;;;4995570;28;20042;-83
2022/03/19 10:01:47;;;;;;;8.43;1.48;;;10.20;70.60;;;;;;5021642;28;20040;-82
2022/03/19 10:04:17;;;;;;;6.88;1.35;;;10.30;68.90;;;;;;4985996;28;20053;-82
2022/03/19 10:09:45;;;;;;;7.78;1.30;;;10.50;62.60;;;;;;4971533;28;20498;-83
2022/03/19 10:12:20;;;;;;;7.63;1.40;;;10.40;64.10;;;;;;5011795;28;21859;-83
2022/03/19 10:14:56;;;;;;;9.85;1.55;;;10.50;65.50;;;;;;5011287;28;20113;-83
2022/03/19 10:17:25;;;;;;;8.27;1.75;;;10.60;65.20;;;;;;5009613;28;20449;-83
2022/03/19 10:19:51;;;;;;;8.10;1.38;;;10.70;64.30;;;;;;5015703;28;20148;-82
2022/03/19 10:22:25;;;;;;;5.63;1.02;;;10.80;63.40;;;;;;4977319;28;20420;-83
2022/03/19 10:25:00;;;;;;;6.22;1.10;;;10.90;61.80;;;;;;4990361;28;20794;-83
2022/03/19 10:27:31;;;;;;;5.38;1.25;;;10.90;60.70;;;;;;4993815;28;20438;-83
2022/03/19 10:30:05;;;;;;;5.00;1.13;;;11.00;60.90;;;;;;5006419;28;20475;-83
2022/03/19 10:32:30;;;;;;;4.15;1.48;;;11.00;59.30;;;;;;5011002;28;20557;-83
2022/03/19 10:34:56;;;;;;;6.80;1.73;;;11.10;59.80;;;;;;4988612;28;20050;-82
2022/03/19 10:37:39;;;;;;;6.15;1.20;;;11.20;59.90;;;;;;4991090;28;20038;-82
2022/03/19 10:40:08;;;;;;;6.55;1.25;;;11.30;59.20;;;;;;4976219;28;20042;-82
2022/03/19 10:42:41;;;;;;;11.05;1.58;;;11.40;59.20;;;;;;5010235;28;20439;-82
2022/03/19 10:45:11;;;;;;;3.20;1.00;;;11.50;58.20;;;;;;5010963;28;20041;-82
2022/03/19 10:47:45;;;;;;;4.22;0.93;;;11.60;58.70;;;;;;4992046;28;20042;-83
2022/03/19 10:50:23;;;;;;;7.38;1.27;;;11.60;57.70;;;;;;4994517;28;20156;-83
2022/03/19 10:52:51;;;;;;;6.78;1.40;;;11.70;58.20;;;;;;5006558;28;20046;-83
2022/03/19 10:55:18;;;;;;;7.35;1.30;;;11.80;58.60;;;;;;4995419;28;20126;-83
2022/03/19 10:57:44;;;;;;;4.00;0.98;;;11.80;57.70;;;;;;4995115;28;20107;-83
2022/03/19 11:00:11;;;;;;;7.43;1.17;;;11.90;57.50;;;;;;4982158;28;20029;-83
2022/03/19 11:02:47;;;;;;;6.03;1.13;;;12.00;55.70;;;;;;4973923;28;20048;-83
2022/03/19 11:05:16;;;;;;;4.70;0.85;;;12.00;54.90;;;;;;5008603;28;20478;-83
2022/03/19 11:07:45;;;;;;;7.20;1.17;;;12.10;55.40;;;;;;5004807;28;20656;-83
2022/03/19 11:10:11;;;;;;;6.25;1.20;;;12.10;54.80;;;;;;4991466;28;20562;-83
2022/03/19 11:12:42;;;;;;;6.35;1.15;;;12.20;54.90;;;;;;4993089;28;20037;-83
2022/03/19 11:15:09;;;;;;;5.80;1.15;;;12.30;54.40;;;;;;4989225;28;20050;-84
2022/03/19 11:17:39;;;;;;;5.00;1.10;;;12.40;53.60;;;;;;5003510;28;20061;-83
2022/03/19 11:20:08;;;;;;;5.65;1.13;;;12.50;53.30;;;;;;5008116;28;20038;-83
2022/03/19 11:22:46;;;;;;;6.75;0.90;;;12.50;52.70;;;;;;4999137;28;20044;-83
2022/03/19 11:25:31;;;;;;;4.70;0.70;;;12.60;52.30;;;;;;4990153;28;20049;-83
2022/03/19 11:28:06;;;;;;;3.58;0.63;;;12.70;50.50;;;;;;4992507;28;20045;-83
2022/03/19 11:30:56;;;;;;;4.90;1.00;;;12.80;50.30;;;;;;4992370;28;20045;-82
2022/03/19 11:33:22;;;;;;;5.90;0.90;;;12.90;49.50;;;;;;4988054;28;20053;-82
2022/03/19 11:36:05;;;;;;;2.90;0.63;;;13.00;49.50;;;;;;5011028;28;20042;-83
2022/03/19 11:38:34;;;;;;;5.60;1.00;;;13.10;48.70;;;;;;4990303;28;20142;-83
2022/03/19 11:41:00;;;;;;;5.03;0.70;;;13.20;49.30;;;;;;5011433;28;20038;-82
2022/03/19 11:43:31;;;;;;;5.05;1.00;;;13.20;48.50;;;;;;5009691;28;20475;-82
2022/03/19 11:46:09;;;;;;;4.65;0.90;;;13.30;48.60;;;;;;4998489;28;20045;-83
2022/03/19 11:48:35;;;;;;;4.65;0.85;;;13.50;48.60;;;;;;4986595;28;20564;-83
2022/03/19 11:51:15;;;;;;;5.22;0.90;;;13.60;48.20;;;;;;4993008;28;20152;-83
2022/03/19 11:54:03;;;;;;;6.15;0.90;;;13.80;48.40;;;;;;5002814;28;20046;-83
2022/03/19 11:56:48;;;;;;;4.85;0.90;;;13.90;47.40;;;;;;5008063;28;20482;-82
2022/03/19 11:59:18;;;;;;;3.88;0.75;;;13.90;46.60;;;;;;5006380;28;20053;-83
2022/03/19 12:02:04;;;;;;;3.42;0.80;;;14.00;47.20;;;;;;4980266;28;20113;-83
2022/03/19 12:04:51;;;;;;;2.90;0.50;;;14.00;46.50;;;;;;4984755;28;20153;-83
2022/03/19 12:07:47;;;;;;;2.45;0.60;;;14.10;45.00;;;;;;4992201;28;20053;-83
2022/03/19 12:10:16;;;;;;;3.22;0.70;;;14.20;44.80;;;;;;4998763;28;20046;-83
2022/03/19 12:12:44;;;;;;;6.78;0.85;;;14.20;44.10;;;;;;5007827;28;20106;-83
2022/03/19 12:15:32;;;;;;;2.35;0.65;;;14.30;44.20;;;;;;5013311;28;20053;-83
2022/03/19 12:18:27;;;;;;;10.43;1.20;;;14.40;42.80;;;;;;5000278;28;20112;-82
2022/03/19 12:20:58;;;;;;;4.28;0.60;;;14.40;42.30;;;;;;5003712;28;20038;-83
2022/03/19 12:23:26;;;;;;;4.80;0.70;;;14.50;43.40;;;;;;4996066;28;20046;-83
2022/03/19 12:26:04;;;;;;;4.88;0.75;;;14.70;42.80;;;;;;5009786;28;20045;-84
2022/03/19 12:28:30;;;;;;;2.05;0.52;;;14.80;41.50;;;;;;4999987;28;20042;-83
2022/03/19 12:31:11;;;;;;;7.32;0.85;;;14.90;42.00;;;;;;5014833;28;20100;-83
2022/03/19 12:33:38;;;;;;;3.70;0.60;;;15.10;41.60;;;;;;4995041;28;20076;-83
2022/03/19 12:36:15;;;;;;;3.05;0.75;;;15.40;41.40;;;;;;4983292;28;20041;-83
2022/03/19 12:38:41;;;;;;;4.25;0.70;;;16.00;40.90;;;;;;4978088;28;20117;-83
2022/03/19 12:41:29;;;;;;;2.22;0.55;;;16.40;39.40;;;;;;4978158;28;20471;-83
2022/03/19 12:44:06;;;;;;;3.83;0.80;;;16.90;39.00;;;;;;5016034;28;20037;-83
2022/03/19 12:46:33;;;;;;;2.85;0.65;;;17.50;38.60;;;;;;4992863;28;20034;-83
2022/03/19 12:49:10;;;;;;;3.20;0.70;;;17.80;37.70;;;;;;4998070;28;20042;-84
2022/03/19 12:51:43;;;;;;;3.63;0.70;;;18.10;36.60;;;;;;5021198;28;20089;-83
2022/03/19 12:54:25;;;;;;;2.35;0.63;;;18.20;35.90;;;;;;5013597;28;20037;-83
2022/03/19 12:56:53;;;;;;;2.67;0.50;;;18.30;34.10;;;;;;4980460;28;20038;-83
2022/03/19 12:59:26;;;;;;;3.17;0.60;;;18.40;34.00;;;;;;5017684;28;20034;-83
2022/03/19 13:01:53;;;;;;;3.03;0.60;;;18.70;34.20;;;;;;5010882;28;20470;-83
2022/03/19 13:04:22;;;;;;;4.35;0.90;;;18.90;34.40;;;;;;5014458;28;20705;-83
2022/03/19 13:06:48;;;;;;;3.47;0.70;;;19.20;34.30;;;;;;5000968;28;20103;-83
2022/03/19 13:09:14;;;;;;;2.22;0.63;;;19.40;33.50;;;;;;5008496;28;20049;-83
2022/03/19 13:11:44;;;;;;;3.20;0.90;;;19.70;33.20;;;;;;5000340;28;20145;-83
2022/03/19 13:14:19;;;;;;;5.35;0.95;;;19.80;32.80;;;;;;4981507;28;20046;-83